KPSP/PSP METAR and TAF weather

Enter ICAO airport designator
Station Type Date Time Source
KPSP METAR 2020/01/20 09:53 UTC NOAA

KPSP 200953Z AUTO 33009KT 10SM CLR 15/M02 A3008 RMK AO2 SLP186 T01501017 $


Station Type Date Time Source
KPSP Decoded METAR 2020/01/20 09:53 UTC NOAA

PALM SPRINGS REGIONAL AIRPORT , CA, United States (KPSP) 33-50N 116-30W 135M
Jan 20, 2020 - 04:53 AM EST / 2020.01.20 0953 UTC
Wind: from the NNW (330 degrees) at 10 MPH (9 KT):0
Visibility: 10 mile(s):0
Sky conditions: clear
Temperature: 59.0 F (15.0 C)
Dew Point: 28.9 F (-1.7 C)
Relative Humidity: 31%
Pressure (altimeter): 30.08 in. Hg (1018 hPa)
ob: KPSP 200953Z AUTO 33009KT 10SM CLR 15/M02 A3008 RMK AO2 SLP186 T01501017
cycle: 10

Station Type Date Time Source
KPSP TAF 2020/01/20 06:36 UTC NOAA

TAF KPSP 200535Z 2006/2106 VRB05KT P6SM SCT250

Example: see airport list